createdAt,value
2023-04-19T00:02:15.111Z,2.25
2023-04-19T00:04:44.987Z,1.98
2023-04-19T00:07:14.610Z,1.40
2023-04-19T00:09:42.034Z,1.67
2023-04-19T00:12:09.280Z,1.42
2023-04-19T00:14:36.573Z,1.30
2023-04-19T00:17:04.026Z,1.98
2023-04-19T00:19:31.286Z,1.90
2023-04-19T00:21:58.547Z,2.03
2023-04-19T00:24:26.081Z,2.20
2023-04-19T00:26:53.334Z,2.00
2023-04-19T00:29:20.555Z,1.50
2023-04-19T00:31:47.824Z,1.60
2023-04-19T00:34:15.332Z,2.08
2023-04-19T00:36:42.737Z,1.60
2023-04-19T00:39:09.978Z,1.30
2023-04-19T00:41:37.207Z,1.10
2023-04-19T00:44:04.428Z,0.90
2023-04-19T00:46:31.838Z,1.00
2023-04-19T00:48:59.069Z,0.98
2023-04-19T00:51:27.360Z,0.90
2023-04-19T00:53:54.688Z,0.80
2023-04-19T00:56:24.173Z,1.00
2023-04-19T00:58:51.504Z,1.00
2023-04-19T01:01:18.771Z,1.00
2023-04-19T01:03:47.258Z,1.20
2023-04-19T01:06:15.243Z,1.20
2023-04-19T01:08:42.499Z,0.90
2023-04-19T01:11:09.793Z,1.00
2023-04-19T01:13:37.011Z,0.88
2023-04-19T01:16:04.432Z,1.52
2023-04-19T01:18:37.405Z,1.33
2023-04-19T01:21:05.155Z,1.05
2023-04-19T01:23:32.415Z,1.10
2023-04-19T01:26:01.926Z,1.33
2023-04-19T01:28:29.249Z,0.90
2023-04-19T01:30:56.507Z,1.00
2023-04-19T01:33:24.001Z,1.00
2023-04-19T01:35:51.239Z,0.90
2023-04-19T01:38:18.522Z,0.80
2023-04-19T01:40:45.782Z,1.15
2023-04-19T01:43:14.062Z,0.82
2023-04-19T01:45:41.292Z,0.60
2023-04-19T01:48:08.621Z,0.80
2023-04-19T01:50:35.931Z,0.73
2023-04-19T01:53:03.231Z,0.85
2023-04-19T01:55:30.500Z,1.00
2023-04-19T01:57:57.862Z,0.70
2023-04-19T02:00:25.310Z,0.75
2023-04-19T02:02:52.658Z,0.77
2023-04-19T02:05:20.026Z,0.55
2023-04-19T02:07:47.360Z,0.63
2023-04-19T02:10:14.629Z,0.80
2023-04-19T02:12:43.000Z,0.93
2023-04-19T02:15:10.634Z,0.60
2023-04-19T02:17:38.936Z,0.70
2023-04-19T02:20:08.514Z,0.80
2023-04-19T02:22:35.802Z,0.70
2023-04-19T02:25:03.062Z,0.80
2023-04-19T02:27:30.285Z,1.13
2023-04-19T02:29:57.626Z,0.93
2023-04-19T02:32:24.866Z,1.30
2023-04-19T02:34:52.173Z,1.55
2023-04-19T02:37:19.390Z,1.45
2023-04-19T02:39:47.006Z,1.30
2023-04-19T02:42:14.237Z,1.40
2023-04-19T02:44:41.513Z,1.30
2023-04-19T02:47:08.796Z,1.15
2023-04-19T02:49:38.001Z,1.20
2023-04-19T02:52:05.464Z,1.33
2023-04-19T02:54:33.345Z,1.48
2023-04-19T02:57:01.055Z,1.40
2023-04-19T02:59:28.345Z,1.33
2023-04-19T03:01:55.692Z,1.10
2023-04-19T03:04:23.030Z,1.02
2023-04-19T03:06:50.350Z,1.10
2023-04-19T03:09:17.650Z,1.35
2023-04-19T03:11:44.854Z,1.75
2023-04-19T03:14:12.050Z,1.50
2023-04-19T03:16:39.320Z,1.48
2023-04-19T03:19:06.510Z,1.75
2023-04-19T03:21:33.734Z,1.33
2023-04-19T03:24:00.956Z,1.63
2023-04-19T03:26:28.135Z,1.83
2023-04-19T03:28:55.418Z,1.83
2023-04-19T03:31:22.688Z,1.73
2023-04-19T03:33:50.692Z,2.03
2023-04-19T03:36:17.939Z,2.15
2023-04-19T03:38:45.264Z,1.80
2023-04-19T03:41:19.154Z,1.40
2023-04-19T03:43:46.391Z,2.03
2023-04-19T03:46:13.694Z,1.70
2023-04-19T03:48:41.134Z,1.65
2023-04-19T03:51:08.394Z,2.13
2023-04-19T03:53:36.409Z,2.00
2023-04-19T03:56:03.855Z,2.20
2023-04-19T03:58:31.079Z,2.22
2023-04-19T04:00:59.388Z,1.80
2023-04-19T04:03:26.825Z,1.85
2023-04-19T04:05:54.183Z,2.17
2023-04-19T04:08:21.443Z,1.42
2023-04-19T04:10:48.705Z,1.23
2023-04-19T04:13:15.995Z,1.20
2023-04-19T04:15:43.263Z,1.00
2023-04-19T04:18:10.920Z,1.17
2023-04-19T04:20:38.158Z,0.88
2023-04-19T04:23:05.410Z,1.35
2023-04-19T04:25:33.116Z,0.93
2023-04-19T04:28:00.384Z,1.02
2023-04-19T04:30:28.813Z,1.27
2023-04-19T04:32:58.209Z,1.33
2023-04-19T04:35:26.166Z,2.20
2023-04-19T04:37:56.749Z,2.80
2023-04-19T04:40:24.261Z,2.65
2023-04-19T04:42:54.196Z,2.55
2023-04-19T04:45:21.488Z,3.42
2023-04-19T04:47:48.761Z,2.90
2023-04-19T04:50:15.999Z,4.13
2023-04-19T04:52:43.232Z,3.38
2023-04-19T04:55:11.127Z,2.90
2023-04-19T04:57:38.359Z,2.50
2023-04-19T05:00:06.977Z,3.00
2023-04-19T05:02:34.278Z,2.58
2023-04-19T05:05:01.748Z,3.10
2023-04-19T05:07:29.001Z,2.35
2023-04-19T05:09:56.701Z,2.53
2023-04-19T05:12:23.951Z,2.70
2023-04-19T05:14:51.205Z,2.78
2023-04-19T05:17:18.659Z,2.15
2023-04-19T05:19:45.927Z,1.55
2023-04-19T05:22:13.502Z,2.10
2023-04-19T05:24:42.427Z,1.77
2023-04-19T05:27:09.841Z,2.00
2023-04-19T05:29:37.040Z,1.70
2023-04-19T05:32:04.290Z,1.70
2023-04-19T05:34:31.568Z,2.85
2023-04-19T05:36:58.811Z,2.70
2023-04-19T05:39:26.081Z,3.35
2023-04-19T05:41:53.337Z,3.08
2023-04-19T05:44:20.616Z,2.78
2023-04-19T05:46:47.818Z,2.50
2023-04-19T05:49:15.035Z,2.20
2023-04-19T05:51:42.323Z,2.55
2023-04-19T05:54:12.636Z,2.50
2023-04-19T05:56:40.033Z,3.30
2023-04-19T05:59:08.489Z,2.85
2023-04-19T06:01:35.782Z,2.55
2023-04-19T06:04:03.226Z,2.50
2023-04-19T06:06:30.671Z,2.63
2023-04-19T06:08:57.936Z,4.53
2023-04-19T06:11:34.695Z,4.05
2023-04-19T06:14:06.278Z,4.70
2023-04-19T06:16:33.610Z,4.90
2023-04-19T06:19:01.671Z,5.95
2023-04-19T06:21:31.646Z,5.97
2023-04-19T06:23:59.098Z,4.55
2023-04-19T06:26:26.438Z,5.18
2023-04-19T06:28:53.730Z,4.40
2023-04-19T06:31:21.112Z,3.30
2023-04-19T06:33:48.417Z,3.08
2023-04-19T06:36:15.693Z,3.10
2023-04-19T06:38:44.623Z,4.10
2023-04-19T06:41:11.906Z,3.50
2023-04-19T06:43:43.031Z,4.57
2023-04-19T06:46:10.491Z,4.28
2023-04-19T06:48:37.747Z,5.15
2023-04-19T06:51:05.094Z,4.70
2023-04-19T06:53:32.622Z,5.65
2023-04-19T06:56:01.258Z,5.65
2023-04-19T06:58:29.071Z,5.80
2023-04-19T07:00:56.825Z,6.40
2023-04-19T07:03:24.260Z,6.13
2023-04-19T07:05:56.569Z,4.93
2023-04-19T07:08:27.873Z,5.72
2023-04-19T07:10:59.516Z,6.72
2023-04-19T07:13:26.773Z,5.63
2023-04-19T07:15:54.211Z,6.43
2023-04-19T07:18:21.426Z,6.10
2023-04-19T07:20:49.497Z,6.07
2023-04-19T07:23:16.874Z,6.25
2023-04-19T07:25:44.187Z,5.80
2023-04-19T07:28:11.468Z,6.65
2023-04-19T07:30:38.760Z,6.07
2023-04-19T07:33:08.568Z,5.88
2023-04-19T07:35:35.981Z,5.85
2023-04-19T07:38:03.358Z,5.50
2023-04-19T07:40:30.854Z,6.20
2023-04-19T07:42:58.143Z,5.95
2023-04-19T07:45:25.443Z,6.82
2023-04-19T07:47:52.711Z,5.90
2023-04-19T07:50:21.831Z,5.88
2023-04-19T07:52:49.767Z,5.45
2023-04-19T07:55:17.166Z,5.72
2023-04-19T07:57:48.205Z,5.55
2023-04-19T08:00:16.084Z,6.20
2023-04-19T08:02:44.988Z,5.30
2023-04-19T08:05:13.601Z,5.00
2023-04-19T08:07:41.078Z,5.47
2023-04-19T08:10:08.695Z,5.13
2023-04-19T08:12:42.763Z,6.00
2023-04-19T08:15:38.091Z,5.63
2023-04-19T08:18:04.905Z,5.63
2023-04-19T08:20:32.702Z,5.60
2023-04-19T08:23:04.585Z,4.93
2023-04-19T08:25:38.107Z,5.47
2023-04-19T08:28:05.855Z,5.57
2023-04-19T08:30:33.358Z,5.07
2023-04-19T08:33:01.871Z,5.57
2023-04-19T08:35:29.138Z,4.78
2023-04-19T08:37:56.583Z,4.57
2023-04-19T08:40:23.853Z,4.03
2023-04-19T08:42:51.126Z,4.72
2023-04-19T08:45:27.804Z,4.90
2023-04-19T08:48:01.321Z,4.60
2023-04-19T08:53:12.168Z,4.80
2023-04-19T08:56:06.884Z,4.40
2023-04-19T08:58:57.139Z,4.60
2023-04-19T09:01:34.540Z,4.53
2023-04-19T09:04:21.609Z,3.40
2023-04-19T09:06:52.870Z,3.80
2023-04-19T09:09:34.031Z,3.30
2023-04-19T09:12:16.701Z,3.42
2023-04-19T09:15:00.587Z,3.35
2023-04-19T09:17:28.775Z,3.65
2023-04-19T09:19:56.168Z,4.35
2023-04-19T09:22:23.558Z,4.00
2023-04-19T09:27:34.974Z,3.08
2023-04-19T09:30:03.240Z,3.25
2023-04-19T09:32:31.188Z,2.75
2023-04-19T09:34:59.942Z,3.00
2023-04-19T09:39:57.632Z,3.38
2023-04-19T09:42:47.446Z,3.55
2023-04-19T09:45:29.208Z,4.07
2023-04-19T09:48:02.151Z,2.97
2023-04-19T09:50:31.348Z,3.10
2023-04-19T09:52:59.849Z,3.33
2023-04-19T09:55:29.243Z,3.38
2023-04-19T09:57:58.969Z,2.75
2023-04-19T10:00:28.256Z,3.40
2023-04-19T10:02:58.851Z,3.80
2023-04-19T10:05:26.705Z,3.92
2023-04-19T10:07:59.586Z,3.05
2023-04-19T10:10:41.338Z,2.95
2023-04-19T10:13:19.624Z,2.90
2023-04-19T10:15:52.560Z,2.28
2023-04-19T10:18:23.182Z,2.67
2023-04-19T10:20:50.473Z,3.90
2023-04-19T10:23:18.501Z,3.05
2023-04-19T10:25:49.197Z,2.60
2023-04-19T10:28:17.449Z,2.38
2023-04-19T10:31:10.962Z,1.65
2023-04-19T10:33:38.667Z,2.13
2023-04-19T10:36:09.250Z,2.50
2023-04-19T10:38:49.395Z,3.40
2023-04-19T10:41:18.459Z,2.65
2023-04-19T10:43:46.255Z,2.83
2023-04-19T10:46:13.652Z,3.30
2023-04-19T10:49:01.138Z,3.80
2023-04-19T10:51:28.538Z,3.88
2023-04-19T10:53:55.957Z,3.90
2023-04-19T10:56:43.702Z,3.00
2023-04-19T10:59:21.510Z,2.58
2023-04-19T11:01:51.032Z,3.40
2023-04-19T11:04:18.454Z,3.53
2023-04-19T11:06:52.405Z,2.90
2023-04-19T11:09:24.291Z,2.50
2023-04-19T11:11:52.416Z,2.70
2023-04-19T11:14:21.412Z,3.00
2023-04-19T11:16:48.840Z,3.08
2023-04-19T11:19:26.037Z,3.20
2023-04-19T11:21:53.268Z,3.30
2023-04-19T11:24:21.078Z,3.53
2023-04-19T11:26:48.755Z,2.83
2023-04-19T11:29:16.210Z,2.92
2023-04-19T11:31:46.977Z,2.63
2023-04-19T11:34:14.622Z,2.85
2023-04-19T11:36:48.326Z,3.40
2023-04-19T11:39:15.548Z,2.80
2023-04-19T11:41:43.152Z,2.92
2023-04-19T11:44:17.533Z,3.10
2023-04-19T11:46:58.261Z,3.33
2023-04-19T11:49:32.865Z,3.75
2023-04-19T11:52:03.849Z,2.95
2023-04-19T12:02:02.380Z,3.67
2023-04-19T12:04:29.789Z,3.30
2023-04-19T12:07:00.534Z,3.22
2023-04-19T12:09:27.837Z,3.10
2023-04-19T12:11:55.094Z,3.92
2023-04-19T12:14:23.292Z,2.70
2023-04-19T12:17:09.675Z,2.88
2023-04-19T12:19:43.232Z,2.83
2023-04-19T12:22:11.453Z,3.10
2023-04-19T12:24:39.631Z,3.00
2023-04-19T12:27:06.961Z,2.70
2023-04-19T12:29:35.149Z,2.85
2023-04-19T12:32:02.943Z,2.50
2023-04-19T12:34:30.390Z,2.47
2023-04-19T12:36:57.908Z,2.95
2023-04-19T12:39:25.546Z,3.00
2023-04-19T12:41:52.791Z,3.03
2023-04-19T12:44:20.100Z,2.70
2023-04-19T12:46:47.551Z,2.25
2023-04-19T13:08:48.171Z,2.25
2023-04-19T13:11:16.430Z,2.30
2023-04-19T13:13:43.632Z,1.85
2023-04-19T13:16:11.092Z,2.15
2023-04-19T13:18:38.466Z,2.63
2023-04-19T13:21:08.079Z,2.55
2023-04-19T13:23:35.892Z,2.42
2023-04-19T13:26:03.170Z,2.63
2023-04-19T13:28:31.116Z,2.10
2023-04-19T13:30:58.513Z,2.53
2023-04-19T13:33:26.975Z,2.53
2023-04-19T13:35:54.291Z,1.92
2023-04-19T13:38:21.563Z,2.00
2023-04-19T13:40:48.754Z,2.28
2023-04-19T13:43:15.965Z,1.92
2023-04-19T13:45:43.179Z,1.80
2023-04-19T13:48:10.393Z,2.00
2023-04-19T13:50:46.585Z,1.98
2023-04-19T13:53:13.839Z,1.20
2023-04-19T13:55:41.425Z,1.50
2023-04-19T13:58:08.624Z,1.90
2023-04-19T14:00:35.882Z,1.77
2023-04-19T14:03:03.350Z,1.73
2023-04-19T14:05:31.043Z,1.63
2023-04-19T14:07:58.294Z,1.42
2023-04-19T14:10:25.526Z,1.65
2023-04-19T14:12:53.146Z,1.70
2023-04-19T14:15:20.888Z,1.52
2023-04-19T14:17:48.168Z,1.55
2023-04-19T14:20:15.744Z,1.40
2023-04-19T14:22:43.854Z,1.33
2023-04-19T14:25:12.605Z,1.40
2023-04-19T14:27:39.923Z,1.40
2023-04-19T14:30:07.929Z,2.17
2023-04-19T14:32:35.511Z,1.95
2023-04-19T14:35:02.950Z,1.73
2023-04-19T14:37:30.247Z,1.30
2023-04-19T14:39:57.481Z,1.30
2023-04-19T14:42:24.737Z,1.30
2023-04-19T14:44:52.550Z,1.13
2023-04-19T14:47:20.268Z,1.30
2023-04-19T14:49:47.727Z,1.20
2023-04-19T14:52:15.137Z,1.30
2023-04-19T14:54:43.283Z,1.30
2023-04-19T14:57:10.705Z,1.13
2023-04-19T14:59:37.922Z,1.20
2023-04-19T15:02:05.745Z,1.10
2023-04-19T15:04:39.019Z,0.80
2023-04-19T15:07:08.115Z,1.15
2023-04-19T15:09:35.496Z,0.82
2023-04-19T15:12:02.724Z,0.93
2023-04-19T15:14:29.948Z,1.13
2023-04-19T15:16:57.207Z,0.93
2023-04-19T15:19:24.482Z,0.95
2023-04-19T15:21:51.784Z,0.93
2023-04-19T15:24:19.081Z,1.10
2023-04-19T15:26:46.341Z,1.05
2023-04-19T15:29:13.668Z,1.00
2023-04-19T15:31:41.087Z,1.00
2023-04-19T15:34:08.378Z,0.90
2023-04-19T15:36:35.613Z,0.90
2023-04-19T15:39:03.403Z,1.00
2023-04-19T15:41:30.758Z,1.15
2023-04-19T15:43:58.073Z,1.00
2023-04-19T15:46:25.475Z,0.90
2023-04-19T15:48:52.839Z,1.00
2023-04-19T15:51:20.122Z,1.05
2023-04-19T15:53:47.352Z,1.00
2023-04-19T15:56:14.594Z,1.00
2023-04-19T15:58:42.321Z,1.02
2023-04-19T16:01:12.472Z,0.90
2023-04-19T16:03:40.297Z,1.10
2023-04-19T16:06:07.688Z,1.08
2023-04-19T16:08:34.882Z,1.35
2023-04-19T16:11:02.165Z,1.10
2023-04-19T16:13:31.374Z,1.17
2023-04-19T16:15:58.871Z,1.17
2023-04-19T16:18:26.216Z,0.95
2023-04-19T16:20:54.345Z,1.17
2023-04-19T16:23:21.606Z,1.38
2023-04-19T16:25:48.926Z,1.10
2023-04-19T16:28:16.483Z,1.27
2023-04-19T16:30:43.830Z,1.20
2023-04-19T16:33:11.481Z,1.33
2023-04-19T16:35:38.780Z,1.23
2023-04-19T16:38:06.978Z,1.40
2023-04-19T16:40:34.331Z,1.80
2023-04-19T16:43:01.674Z,1.23
2023-04-19T16:45:28.952Z,0.90
2023-04-19T16:47:56.326Z,1.23
2023-04-19T16:50:23.559Z,1.20
2023-04-19T16:52:50.821Z,1.20
2023-04-19T16:55:18.049Z,1.50
2023-04-19T16:57:45.387Z,1.17
2023-04-19T17:00:13.270Z,1.30
2023-04-19T17:02:40.910Z,1.33
2023-04-19T17:05:08.652Z,1.17
2023-04-19T17:07:36.740Z,1.23
2023-04-19T17:10:03.974Z,1.20
2023-04-19T17:12:31.315Z,1.45
2023-04-19T17:14:58.550Z,1.23
2023-04-19T17:17:25.860Z,1.33
2023-04-19T17:19:56.666Z,1.45
2023-04-19T17:22:24.152Z,1.50
2023-04-19T17:24:51.523Z,1.50
2023-04-19T17:27:18.745Z,1.38
2023-04-19T17:29:45.971Z,1.30
2023-04-19T17:32:13.185Z,1.20
2023-04-19T17:34:40.479Z,1.15
2023-04-19T17:37:07.673Z,1.17
2023-04-19T17:39:34.891Z,1.05
2023-04-19T17:42:02.151Z,0.98
2023-04-19T17:44:29.331Z,1.13
2023-04-19T17:46:56.723Z,1.38
2023-04-19T17:49:24.960Z,1.35
2023-04-19T17:51:53.186Z,1.50
2023-04-19T17:54:20.794Z,1.35
2023-04-19T17:56:48.211Z,1.48
2023-04-19T17:59:15.660Z,1.30
2023-04-19T18:01:43.081Z,1.20
2023-04-19T18:04:14.149Z,1.13
2023-04-19T18:06:41.583Z,1.10
2023-04-19T18:09:08.905Z,1.20
2023-04-19T18:11:36.131Z,0.90
2023-04-19T18:14:03.369Z,1.13
2023-04-19T18:16:30.633Z,1.00
2023-04-19T18:18:57.930Z,1.10
2023-04-19T18:21:25.898Z,1.10
2023-04-19T18:23:54.652Z,0.93
2023-04-19T18:26:22.016Z,0.80
2023-04-19T18:28:49.250Z,0.90
2023-04-19T18:31:16.479Z,0.80
2023-04-19T18:33:43.788Z,1.00
2023-04-19T18:36:11.177Z,1.20
2023-04-19T18:38:38.528Z,0.80
2023-04-19T18:41:05.895Z,0.75
2023-04-19T18:43:33.197Z,0.93
2023-04-19T18:46:01.365Z,0.90
2023-04-19T18:48:29.972Z,1.17
2023-04-19T18:50:57.487Z,1.25
2023-04-19T18:53:26.388Z,1.70
2023-04-19T18:55:57.596Z,2.72
2023-04-19T18:58:25.472Z,3.25
2023-04-19T19:00:52.870Z,2.80
2023-04-19T19:03:49.898Z,2.13
2023-04-19T19:06:09.387Z,2.17
2023-04-19T19:08:36.928Z,1.60
2023-04-19T19:11:18.265Z,1.40
2023-04-19T19:13:51.632Z,1.30
2023-04-19T19:16:19.716Z,1.00
2023-04-19T19:18:47.262Z,0.77
2023-04-19T19:21:14.555Z,0.70
2023-04-19T19:23:42.830Z,0.52
2023-04-19T19:26:12.656Z,0.65
2023-04-19T19:28:40.328Z,0.90
2023-04-19T19:31:07.763Z,0.82
2023-04-19T19:33:35.079Z,0.70
2023-04-19T19:36:02.630Z,0.70
2023-04-19T19:38:31.310Z,0.75
2023-04-19T19:41:41.734Z,0.80
2023-04-19T19:43:45.824Z,0.77
2023-04-19T19:46:13.919Z,0.68
2023-04-19T19:48:42.779Z,0.80
2023-04-19T19:51:41.790Z,0.75
2023-04-19T19:53:57.543Z,0.70
2023-04-19T19:56:24.960Z,0.85
2023-04-19T19:58:52.557Z,0.60
2023-04-19T20:01:22.388Z,0.60
2023-04-19T20:03:50.924Z,0.82
2023-04-19T20:07:07.586Z,0.90
2023-04-19T20:09:05.705Z,0.90
2023-04-19T20:11:33.126Z,0.82
2023-04-19T20:14:00.321Z,0.90
2023-04-19T20:16:29.088Z,0.80
2023-04-19T20:18:57.851Z,0.90
2023-04-19T20:21:25.300Z,0.90
2023-04-19T20:23:54.050Z,0.80
2023-04-19T20:26:21.317Z,0.95
2023-04-19T20:28:49.345Z,0.80
2023-04-19T20:31:16.760Z,0.75
2023-04-19T20:33:46.047Z,0.90
2023-04-19T20:36:14.046Z,0.88
2023-04-19T20:38:40.835Z,0.90
2023-04-19T20:41:07.756Z,0.90
2023-04-19T20:43:34.596Z,0.63
2023-04-19T20:46:01.896Z,0.93
2023-04-19T20:48:28.903Z,0.90
2023-04-19T20:50:55.804Z,0.88
2023-04-19T20:53:22.989Z,0.65
2023-04-19T20:55:49.761Z,0.88
2023-04-19T21:00:57.234Z,0.85
2023-04-19T21:07:15.245Z,0.70
2023-04-19T21:09:42.014Z,0.77
2023-04-19T21:12:08.871Z,1.17
2023-04-19T21:14:35.661Z,0.60
2023-04-19T21:17:03.519Z,0.77
2023-04-19T21:19:30.571Z,0.70
2023-04-19T21:21:58.492Z,0.80
2023-04-19T21:24:25.328Z,0.70
2023-04-19T21:26:52.102Z,0.60
2023-04-19T21:29:19.542Z,0.70
2023-04-19T21:31:46.750Z,0.60
2023-04-19T21:34:14.017Z,0.80
2023-04-19T21:36:40.819Z,0.90
2023-04-19T21:39:08.017Z,0.68
2023-04-19T21:41:35.768Z,0.50
2023-04-19T21:44:02.570Z,0.60
2023-04-19T21:46:29.362Z,0.55
2023-04-19T21:48:56.310Z,0.65
2023-04-19T21:51:23.261Z,0.60
2023-04-19T21:53:50.026Z,0.80
2023-04-19T21:56:16.796Z,0.70
2023-04-19T21:58:43.519Z,0.63
2023-04-19T22:01:10.826Z,0.80
2023-04-19T22:03:37.998Z,0.50
2023-04-19T22:06:06.687Z,0.73
2023-04-19T22:08:33.976Z,0.70
2023-04-19T22:11:01.757Z,0.70
2023-04-19T22:13:30.139Z,0.68
2023-04-19T22:15:57.329Z,0.80
2023-04-19T22:18:24.290Z,0.63
2023-04-19T22:20:52.182Z,0.47
2023-04-19T22:23:19.238Z,0.65
2023-04-19T22:25:46.145Z,0.73
2023-04-19T22:28:13.019Z,0.60
2023-04-19T22:30:39.922Z,0.70
2023-04-19T22:33:06.996Z,0.50
2023-04-19T22:35:33.967Z,0.80
2023-04-19T22:38:00.829Z,0.82
2023-04-19T22:40:27.729Z,0.70
2023-04-19T22:42:54.496Z,0.75
2023-04-19T22:45:21.236Z,0.85
2023-04-19T22:47:48.044Z,0.80
2023-04-19T22:50:14.894Z,0.70
2023-04-19T22:52:42.582Z,0.70
2023-04-19T22:55:10.228Z,0.60
2023-04-19T22:57:37.044Z,1.02
2023-04-19T23:00:05.449Z,0.90
2023-04-19T23:02:32.419Z,0.90
2023-04-19T23:05:00.715Z,1.23
2023-04-19T23:07:28.960Z,1.42
2023-04-19T23:09:56.282Z,0.80
2023-04-19T23:12:24.134Z,0.82
2023-04-19T23:14:51.177Z,1.30
2023-04-19T23:17:18.313Z,1.20
2023-04-19T23:19:45.159Z,1.10
2023-04-19T23:22:11.992Z,1.20
2023-04-19T23:24:38.735Z,0.93
2023-04-19T23:27:05.799Z,1.10
2023-04-19T23:29:32.573Z,1.20
2023-04-19T23:32:01.918Z,1.20
2023-04-19T23:34:28.813Z,1.42
2023-04-19T23:36:56.807Z,0.93
2023-04-19T23:39:23.680Z,0.90
2023-04-19T23:41:50.657Z,0.88
2023-04-19T23:44:17.498Z,0.82
2023-04-19T23:46:44.275Z,0.80
2023-04-19T23:49:11.173Z,0.70
2023-04-19T23:51:37.993Z,0.75
2023-04-19T23:54:05.256Z,0.80
2023-04-19T23:56:31.979Z,0.68
2023-04-19T23:58:58.784Z,1.10
